sensor_id;sensor_type;location;lat;lon;timestamp;pressure;altitude;pressure_sealevel;temperature;humidity
55460;BME280;41326;45.302;-122.946;2022-08-19T00:00:22;100556.65;;;22.58;47.56
55460;BME280;41326;45.302;-122.946;2022-08-19T00:02:53;100572.28;;;22.51;47.48
55460;BME280;41326;45.302;-122.946;2022-08-19T00:05:24;100578.98;;;22.39;47.28
55460;BME280;41326;45.302;-122.946;2022-08-19T00:07:54;100578.78;;;22.28;46.62
55460;BME280;41326;45.302;-122.946;2022-08-19T00:10:24;100591.51;;;22.21;46.97
55460;BME280;41326;45.302;-122.946;2022-08-19T00:12:54;100595.95;;;22.19;46.94
55460;BME280;41326;45.302;-122.946;2022-08-19T00:15:26;100591.56;;;22.20;46.67
55460;BME280;41326;45.302;-122.946;2022-08-19T00:17:55;100597.61;;;22.16;46.93
55460;BME280;41326;45.302;-122.946;2022-08-19T00:20:27;100602.44;;;22.02;46.66
55460;BME280;41326;45.302;-122.946;2022-08-19T00:22:55;100597.19;;;21.92;46.93
55460;BME280;41326;45.302;-122.946;2022-08-19T00:25:26;100592.44;;;21.77;46.78
55460;BME280;41326;45.302;-122.946;2022-08-19T00:27:56;100574.34;;;21.67;46.48
55460;BME280;41326;45.302;-122.946;2022-08-19T00:30:26;100564.10;;;21.66;45.77
55460;BME280;41326;45.302;-122.946;2022-08-19T00:32:56;100561.13;;;21.54;46.16
55460;BME280;41326;45.302;-122.946;2022-08-19T00:35:26;100552.45;;;21.49;46.86
55460;BME280;41326;45.302;-122.946;2022-08-19T00:37:56;100557.38;;;21.44;46.45
55460;BME280;41326;45.302;-122.946;2022-08-19T00:40:27;100571.65;;;21.44;46.28
55460;BME280;41326;45.302;-122.946;2022-08-19T00:42:57;100578.92;;;21.40;46.22
55460;BME280;41326;45.302;-122.946;2022-08-19T00:45:31;100567.82;;;21.36;46.36
55460;BME280;41326;45.302;-122.946;2022-08-19T00:47:58;100556.36;;;21.27;46.44
55460;BME280;41326;45.302;-122.946;2022-08-19T00:50:30;100551.13;;;21.37;48.43
55460;BME280;41326;45.302;-122.946;2022-08-19T00:52:59;100545.35;;;21.58;49.38
55460;BME280;41326;45.302;-122.946;2022-08-19T00:55:32;100521.95;;;21.80;49.42
55460;BME280;41326;45.302;-122.946;2022-08-19T00:58:04;100496.30;;;21.94;49.26
55460;BME280;41326;45.302;-122.946;2022-08-19T01:00:32;100484.93;;;21.99;48.04
55460;BME280;41326;45.302;-122.946;2022-08-19T01:03:01;100483.11;;;21.90;45.60
55460;BME280;41326;45.302;-122.946;2022-08-19T01:05:33;100483.95;;;21.77;45.47
55460;BME280;41326;45.302;-122.946;2022-08-19T01:08:03;100486.63;;;21.80;45.76
55460;BME280;41326;45.302;-122.946;2022-08-19T01:10:33;100510.40;;;21.83;48.13
55460;BME280;41326;45.302;-122.946;2022-08-19T01:13:04;100543.43;;;21.95;49.17
55460;BME280;41326;45.302;-122.946;2022-08-19T01:15:40;100551.73;;;22.06;49.62
55460;BME280;41326;45.302;-122.946;2022-08-19T01:18:07;100526.97;;;22.14;49.67
55460;BME280;41326;45.302;-122.946;2022-08-19T01:20:32;100499.93;;;22.22;49.01
55460;BME280;41326;45.302;-122.946;2022-08-19T01:23:04;100487.91;;;22.11;46.73
55460;BME280;41326;45.302;-122.946;2022-08-19T01:25:35;100480.87;;;22.11;47.24
55460;BME280;41326;45.302;-122.946;2022-08-19T01:28:03;100483.07;;;22.05;46.30
55460;BME280;41326;45.302;-122.946;2022-08-19T01:30:35;100514.93;;;22.05;47.31
55460;BME280;41326;45.302;-122.946;2022-08-19T01:33:04;100503.70;;;22.15;46.76
55460;BME280;41326;45.302;-122.946;2022-08-19T01:35:36;100478.67;;;22.07;46.52
55460;BME280;41326;45.302;-122.946;2022-08-19T01:38:07;100467.50;;;21.99;46.85
55460;BME280;41326;45.302;-122.946;2022-08-19T01:40:39;100500.60;;;21.99;46.54
55460;BME280;41326;45.302;-122.946;2022-08-19T01:43:06;100516.81;;;22.03;45.92
55460;BME280;41326;45.302;-122.946;2022-08-19T01:45:37;100477.62;;;22.04;46.94
55460;BME280;41326;45.302;-122.946;2022-08-19T01:48:07;100455.10;;;22.04;45.97
55460;BME280;41326;45.302;-122.946;2022-08-19T01:50:38;100459.95;;;21.96;46.13
55460;BME280;41326;45.302;-122.946;2022-08-19T01:53:10;100476.84;;;21.84;45.97
55460;BME280;41326;45.302;-122.946;2022-08-19T01:55:40;100506.61;;;21.79;48.44
55460;BME280;41326;45.302;-122.946;2022-08-19T01:58:13;100511.95;;;21.87;49.78
55460;BME280;41326;45.302;-122.946;2022-08-19T02:00:39;100494.63;;;22.00;51.64
55460;BME280;41326;45.302;-122.946;2022-08-19T02:03:10;100499.28;;;22.04;52.42
55460;BME280;41326;45.302;-122.946;2022-08-19T02:05:40;100513.47;;;22.12;48.66
55460;BME280;41326;45.302;-122.946;2022-08-19T02:08:11;100512.31;;;22.23;49.13
55460;BME280;41326;45.302;-122.946;2022-08-19T02:10:44;100504.74;;;22.27;48.19
55460;BME280;41326;45.302;-122.946;2022-08-19T02:13:11;100493.00;;;22.30;47.18
55460;BME280;41326;45.302;-122.946;2022-08-19T02:15:41;100485.87;;;22.36;46.28
55460;BME280;41326;45.302;-122.946;2022-08-19T02:18:11;100484.54;;;22.38;46.10
55460;BME280;41326;45.302;-122.946;2022-08-19T02:20:43;100493.59;;;22.24;45.12
55460;BME280;41326;45.302;-122.946;2022-08-19T02:23:13;100493.89;;;21.99;46.97
55460;BME280;41326;45.302;-122.946;2022-08-19T02:25:44;100478.55;;;21.98;48.74
55460;BME280;41326;45.302;-122.946;2022-08-19T02:28:14;100472.82;;;22.05;49.54
55460;BME280;41326;45.302;-122.946;2022-08-19T02:30:45;100476.74;;;22.14;50.61
55460;BME280;41326;45.302;-122.946;2022-08-19T02:33:14;100486.96;;;22.18;49.17
55460;BME280;41326;45.302;-122.946;2022-08-19T02:35:46;100502.77;;;22.14;47.23
55460;BME280;41326;45.302;-122.946;2022-08-19T02:38:15;100519.73;;;22.08;47.87
55460;BME280;41326;45.302;-122.946;2022-08-19T02:40:48;100532.09;;;22.11;47.38
55460;BME280;41326;45.302;-122.946;2022-08-19T02:43:15;100539.89;;;22.04;46.68
55460;BME280;41326;45.302;-122.946;2022-08-19T02:45:46;100533.63;;;21.93;46.81
55460;BME280;41326;45.302;-122.946;2022-08-19T02:48:16;100529.57;;;21.79;46.53
55460;BME280;41326;45.302;-122.946;2022-08-19T02:50:47;100536.35;;;21.57;48.15
55460;BME280;41326;45.302;-122.946;2022-08-19T02:53:17;100534.90;;;21.58;49.82
55460;BME280;41326;45.302;-122.946;2022-08-19T02:55:51;100520.66;;;21.70;50.38
55460;BME280;41326;45.302;-122.946;2022-08-19T02:58:19;100513.03;;;21.80;50.61
55460;BME280;41326;45.302;-122.946;2022-08-19T03:00:50;100509.66;;;21.96;50.57
55460;BME280;41326;45.302;-122.946;2022-08-19T03:03:18;100516.85;;;22.04;50.74
55460;BME280;41326;45.302;-122.946;2022-08-19T03:05:49;100520.12;;;21.98;47.72
55460;BME280;41326;45.302;-122.946;2022-08-19T03:08:20;100523.37;;;22.00;47.42
55460;BME280;41326;45.302;-122.946;2022-08-19T03:10:50;100523.40;;;21.93;46.94
55460;BME280;41326;45.302;-122.946;2022-08-19T03:13:21;100521.65;;;21.97;46.42
55460;BME280;41326;45.302;-122.946;2022-08-19T03:15:51;100519.93;;;21.86;46.34
55460;BME280;41326;45.302;-122.946;2022-08-19T03:18:20;100526.67;;;21.76;45.71
55460;BME280;41326;45.302;-122.946;2022-08-19T03:20:53;100532.98;;;21.64;45.76
55460;BME280;41326;45.302;-122.946;2022-08-19T03:23:22;100531.74;;;21.42;45.78
55460;BME280;41326;45.302;-122.946;2022-08-19T03:25:54;100527.90;;;21.35;46.06
55460;BME280;41326;45.302;-122.946;2022-08-19T03:28:22;100527.23;;;21.22;46.31
55460;BME280;41326;45.302;-122.946;2022-08-19T03:30:56;100529.97;;;21.16;46.70
55460;BME280;41326;45.302;-122.946;2022-08-19T03:33:22;100536.48;;;21.13;46.73
55460;BME280;41326;45.302;-122.946;2022-08-19T03:38:23;100528.51;;;21.11;46.31
55460;BME280;41326;45.302;-122.946;2022-08-19T03:40:53;100530.29;;;21.04;46.55
55460;BME280;41326;45.302;-122.946;2022-08-19T03:43:23;100532.22;;;20.97;45.95
55460;BME280;41326;45.302;-122.946;2022-08-19T03:48:25;100532.67;;;20.84;46.01
55460;BME280;41326;45.302;-122.946;2022-08-19T03:50:54;100533.65;;;20.88;45.73
55460;BME280;41326;45.302;-122.946;2022-08-19T03:53:26;100538.66;;;20.89;46.12
55460;BME280;41326;45.302;-122.946;2022-08-19T03:55:55;100540.67;;;20.87;45.88
55460;BME280;41326;45.302;-122.946;2022-08-19T03:58:27;100541.25;;;20.79;45.76
55460;BME280;41326;45.302;-122.946;2022-08-19T04:00:56;100541.01;;;20.68;45.90
55460;BME280;41326;45.302;-122.946;2022-08-19T04:03:26;100544.63;;;20.64;45.48
55460;BME280;41326;45.302;-122.946;2022-08-19T04:05:56;100555.28;;;20.62;45.72
55460;BME280;41326;45.302;-122.946;2022-08-19T04:08:27;100561.60;;;20.49;45.56
55460;BME280;41326;45.302;-122.946;2022-08-19T04:10:57;100560.34;;;20.49;45.41
55460;BME280;41326;45.302;-122.946;2022-08-19T04:13:27;100560.41;;;20.48;45.74
55460;BME280;41326;45.302;-122.946;2022-08-19T04:15:58;100559.89;;;20.47;45.75
55460;BME280;41326;45.302;-122.946;2022-08-19T04:18:28;100560.83;;;20.39;45.53
55460;BME280;41326;45.302;-122.946;2022-08-19T04:20:59;100561.66;;;20.31;46.06
55460;BME280;41326;45.302;-122.946;2022-08-19T04:23:29;100564.24;;;20.28;46.04
55460;BME280;41326;45.302;-122.946;2022-08-19T04:26:00;100569.46;;;20.34;45.52
55460;BME280;41326;45.302;-122.946;2022-08-19T04:28:30;100571.52;;;20.30;45.39
55460;BME280;41326;45.302;-122.946;2022-08-19T04:31:01;100572.30;;;20.31;46.41
55460;BME280;41326;45.302;-122.946;2022-08-19T04:33:31;100562.82;;;20.33;45.84
55460;BME280;41326;45.302;-122.946;2022-08-19T04:36:01;100563.68;;;20.30;45.96
55460;BME280;41326;45.302;-122.946;2022-08-19T04:38:31;100570.24;;;20.29;46.37
55460;BME280;41326;45.302;-122.946;2022-08-19T04:41:02;100572.38;;;20.24;46.24
55460;BME280;41326;45.302;-122.946;2022-08-19T04:43:33;100573.88;;;20.27;46.15
55460;BME280;41326;45.302;-122.946;2022-08-19T04:46:04;100567.43;;;20.23;45.99
55460;BME280;41326;45.302;-122.946;2022-08-19T04:48:33;100564.28;;;20.08;45.86
55460;BME280;41326;45.302;-122.946;2022-08-19T04:51:05;100565.79;;;19.94;46.42
55460;BME280;41326;45.302;-122.946;2022-08-19T04:53:36;100569.09;;;19.96;46.21
55460;BME280;41326;45.302;-122.946;2022-08-19T04:56:06;100571.49;;;19.97;46.57
55460;BME280;41326;45.302;-122.946;2022-08-19T04:58:35;100567.03;;;20.01;45.97
55460;BME280;41326;45.302;-122.946;2022-08-19T05:01:04;100566.93;;;19.99;46.45
55460;BME280;41326;45.302;-122.946;2022-08-19T05:03:35;100571.39;;;19.93;45.55
55460;BME280;41326;45.302;-122.946;2022-08-19T05:06:11;100578.81;;;19.88;46.27
55460;BME280;41326;45.302;-122.946;2022-08-19T05:08:36;100583.83;;;19.89;46.24
55460;BME280;41326;45.302;-122.946;2022-08-19T05:11:08;100583.56;;;19.91;46.22
55460;BME280;41326;45.302;-122.946;2022-08-19T05:13:36;100581.96;;;19.90;46.73
55460;BME280;41326;45.302;-122.946;2022-08-19T05:16:06;100587.50;;;19.98;47.00
55460;BME280;41326;45.302;-122.946;2022-08-19T05:18:37;100592.20;;;19.98;46.19
55460;BME280;41326;45.302;-122.946;2022-08-19T05:21:12;100601.64;;;19.94;46.54
55460;BME280;41326;45.302;-122.946;2022-08-19T05:23:38;100602.69;;;19.89;46.39
55460;BME280;41326;45.302;-122.946;2022-08-19T05:26:08;100602.47;;;19.85;46.00
55460;BME280;41326;45.302;-122.946;2022-08-19T05:28:38;100602.46;;;19.87;46.99
55460;BME280;41326;45.302;-122.946;2022-08-19T05:31:08;100600.83;;;19.86;47.14
55460;BME280;41326;45.302;-122.946;2022-08-19T05:33:39;100599.62;;;19.85;46.61
55460;BME280;41326;45.302;-122.946;2022-08-19T05:36:10;100599.38;;;19.71;46.97
55460;BME280;41326;45.302;-122.946;2022-08-19T05:38:40;100592.93;;;19.72;47.17
55460;BME280;41326;45.302;-122.946;2022-08-19T05:41:13;100591.92;;;19.66;47.43
55460;BME280;41326;45.302;-122.946;2022-08-19T05:43:40;100595.35;;;19.57;47.50
55460;BME280;41326;45.302;-122.946;2022-08-19T05:46:16;100595.11;;;19.61;47.23
55460;BME280;41326;45.302;-122.946;2022-08-19T05:48:43;100598.32;;;19.54;49.03
55460;BME280;41326;45.302;-122.946;2022-08-19T05:51:12;100597.81;;;19.64;50.29
55460;BME280;41326;45.302;-122.946;2022-08-19T05:53:42;100598.60;;;19.76;51.56
55460;BME280;41326;45.302;-122.946;2022-08-19T05:56:14;100601.57;;;19.85;52.62
55460;BME280;41326;45.302;-122.946;2022-08-19T05:58:43;100605.38;;;19.97;52.55
55460;BME280;41326;45.302;-122.946;2022-08-19T06:01:17;100608.16;;;19.98;50.93
55460;BME280;41326;45.302;-122.946;2022-08-19T06:03:44;100605.63;;;20.02;49.15
55460;BME280;41326;45.302;-122.946;2022-08-19T06:06:15;100602.96;;;19.99;48.30
55460;BME280;41326;45.302;-122.946;2022-08-19T06:08:44;100603.42;;;20.00;47.76
55460;BME280;41326;45.302;-122.946;2022-08-19T06:11:20;100604.49;;;19.93;48.97
55460;BME280;41326;45.302;-122.946;2022-08-19T06:13:46;100605.99;;;19.98;50.43
55460;BME280;41326;45.302;-122.946;2022-08-19T06:16:16;100603.52;;;20.04;50.73
55460;BME280;41326;45.302;-122.946;2022-08-19T06:18:46;100599.26;;;20.19;50.64
55460;BME280;41326;45.302;-122.946;2022-08-19T06:21:16;100598.10;;;20.29;50.63
55460;BME280;41326;45.302;-122.946;2022-08-19T06:23:47;100597.29;;;20.26;48.74
55460;BME280;41326;45.302;-122.946;2022-08-19T06:26:18;100596.58;;;20.27;48.17
55460;BME280;41326;45.302;-122.946;2022-08-19T06:28:48;100599.66;;;20.15;47.43
55460;BME280;41326;45.302;-122.946;2022-08-19T06:31:20;100605.14;;;20.12;46.49
55460;BME280;41326;45.302;-122.946;2022-08-19T06:33:49;100606.98;;;19.98;48.50
55460;BME280;41326;45.302;-122.946;2022-08-19T06:36:24;100607.96;;;20.03;49.36
55460;BME280;41326;45.302;-122.946;2022-08-19T06:38:49;100608.38;;;20.12;49.62
55460;BME280;41326;45.302;-122.946;2022-08-19T06:41:19;100613.42;;;20.17;49.94
55460;BME280;41326;45.302;-122.946;2022-08-19T06:43:50;100620.08;;;20.28;49.95
55460;BME280;41326;45.302;-122.946;2022-08-19T06:46:22;100621.09;;;20.33;50.08
55460;BME280;41326;45.302;-122.946;2022-08-19T06:48:51;100617.90;;;20.43;50.05
55460;BME280;41326;45.302;-122.946;2022-08-19T06:51:22;100623.18;;;20.58;50.35
55460;BME280;41326;45.302;-122.946;2022-08-19T06:53:53;100628.59;;;20.63;51.05
55460;BME280;41326;45.302;-122.946;2022-08-19T06:56:23;100627.19;;;20.63;50.32
55460;BME280;41326;45.302;-122.946;2022-08-19T06:58:53;100628.46;;;20.53;47.56
55460;BME280;41326;45.302;-122.946;2022-08-19T07:01:22;100631.54;;;20.38;46.77
55460;BME280;41326;45.302;-122.946;2022-08-19T07:03:53;100633.73;;;20.35;46.85
55460;BME280;41326;45.302;-122.946;2022-08-19T07:06:23;100634.43;;;20.28;49.07
55460;BME280;41326;45.302;-122.946;2022-08-19T07:08:53;100635.13;;;20.28;49.82
55460;BME280;41326;45.302;-122.946;2022-08-19T07:11:24;100635.56;;;20.36;50.58
55460;BME280;41326;45.302;-122.946;2022-08-19T07:13:53;100636.82;;;20.38;51.34
55460;BME280;41326;45.302;-122.946;2022-08-19T07:16:25;100640.37;;;20.48;51.33
55460;BME280;41326;45.302;-122.946;2022-08-19T07:18:55;100645.52;;;20.55;51.34
55460;BME280;41326;45.302;-122.946;2022-08-19T07:21:27;100653.61;;;20.58;51.62
55460;BME280;41326;45.302;-122.946;2022-08-19T07:23:55;100661.18;;;20.56;51.85
55460;BME280;41326;45.302;-122.946;2022-08-19T07:26:29;100662.54;;;20.64;50.31
55460;BME280;41326;45.302;-122.946;2022-08-19T07:28:56;100664.67;;;20.56;47.87
55460;BME280;41326;45.302;-122.946;2022-08-19T07:31:28;100663.86;;;20.44;48.17
55460;BME280;41326;45.302;-122.946;2022-08-19T07:33:58;100666.33;;;20.38;46.75
55460;BME280;41326;45.302;-122.946;2022-08-19T07:36:29;100667.69;;;20.28;46.46
55460;BME280;41326;45.302;-122.946;2022-08-19T07:38:58;100667.81;;;20.08;49.45
55460;BME280;41326;45.302;-122.946;2022-08-19T07:42:35;100668.63;;;20.21;49.90
55460;BME280;41326;45.302;-122.946;2022-08-19T07:45:06;100669.90;;;20.27;50.03
55460;BME280;41326;45.302;-122.946;2022-08-19T07:47:35;100668.02;;;20.42;49.92
55460;BME280;41326;45.302;-122.946;2022-08-19T07:50:07;100667.13;;;20.51;50.07
55460;BME280;41326;45.302;-122.946;2022-08-19T07:52:42;100671.63;;;20.57;50.78
55460;BME280;41326;45.302;-122.946;2022-08-19T07:55:14;100669.94;;;20.61;51.23
55460;BME280;41326;45.302;-122.946;2022-08-19T07:57:41;100674.17;;;20.65;51.25
55460;BME280;41326;45.302;-122.946;2022-08-19T08:00:13;100677.29;;;20.68;51.31
55460;BME280;41326;45.302;-122.946;2022-08-19T08:02:42;100677.61;;;20.70;51.42
55460;BME280;41326;45.302;-122.946;2022-08-19T08:05:12;100679.50;;;20.75;51.46
55460;BME280;41326;45.302;-122.946;2022-08-19T08:07:42;100682.13;;;20.74;50.88
55460;BME280;41326;45.302;-122.946;2022-08-19T08:10:13;100684.95;;;20.70;49.02
55460;BME280;41326;45.302;-122.946;2022-08-19T08:12:43;100684.58;;;20.51;46.79
55460;BME280;41326;45.302;-122.946;2022-08-19T08:15:15;100684.51;;;20.40;46.84
55460;BME280;41326;45.302;-122.946;2022-08-19T08:17:43;100684.41;;;20.23;49.00
55460;BME280;41326;45.302;-122.946;2022-08-19T08:20:14;100682.89;;;20.24;49.98
55460;BME280;41326;45.302;-122.946;2022-08-19T08:22:48;100687.06;;;20.29;50.32
55460;BME280;41326;45.302;-122.946;2022-08-19T08:25:17;100686.06;;;20.33;50.43
55460;BME280;41326;45.302;-122.946;2022-08-19T08:27:45;100687.04;;;20.39;50.53
55460;BME280;41326;45.302;-122.946;2022-08-19T08:30:16;100686.70;;;20.52;50.54
55460;BME280;41326;45.302;-122.946;2022-08-19T08:32:46;100690.28;;;20.62;50.99
55460;BME280;41326;45.302;-122.946;2022-08-19T08:35:18;100694.55;;;20.63;51.49
55460;BME280;41326;45.302;-122.946;2022-08-19T08:37:45;100697.53;;;20.72;51.42
55460;BME280;41326;45.302;-122.946;2022-08-19T08:40:21;100699.33;;;20.76;51.53
55460;BME280;41326;45.302;-122.946;2022-08-19T08:42:51;100703.44;;;20.76;51.66
55460;BME280;41326;45.302;-122.946;2022-08-19T08:45:18;100707.35;;;20.78;51.83
55460;BME280;41326;45.302;-122.946;2022-08-19T08:47:49;100707.88;;;20.83;51.78
55460;BME280;41326;45.302;-122.946;2022-08-19T08:50:21;100715.94;;;20.84;52.01
55460;BME280;41326;45.302;-122.946;2022-08-19T08:52:51;100710.58;;;20.84;52.76
55460;BME280;41326;45.302;-122.946;2022-08-19T08:55:20;100712.15;;;20.89;52.98
55460;BME280;41326;45.302;-122.946;2022-08-19T08:57:55;100713.71;;;20.91;52.96
55460;BME280;41326;45.302;-122.946;2022-08-19T09:00:22;100714.37;;;20.91;53.06
55460;BME280;41326;45.302;-122.946;2022-08-19T09:02:49;100718.35;;;20.88;53.21
55460;BME280;41326;45.302;-122.946;2022-08-19T09:05:20;100718.70;;;20.90;53.17
55460;BME280;41326;45.302;-122.946;2022-08-19T09:07:57;100718.81;;;20.95;53.09
55460;BME280;41326;45.302;-122.946;2022-08-19T09:10:27;100723.09;;;20.99;53.19
55460;BME280;41326;45.302;-122.946;2022-08-19T09:12:55;100720.59;;;20.98;53.74
55460;BME280;41326;45.302;-122.946;2022-08-19T09:15:25;100725.61;;;20.99;53.56
55460;BME280;41326;45.302;-122.946;2022-08-19T09:17:51;100726.61;;;20.96;51.52
55460;BME280;41326;45.302;-122.946;2022-08-19T09:20:25;100729.27;;;20.85;49.71
55460;BME280;41326;45.302;-122.946;2022-08-19T09:22:52;100732.54;;;20.55;49.58
55460;BME280;41326;45.302;-122.946;2022-08-19T09:25:23;100736.91;;;20.41;51.44
55460;BME280;41326;45.302;-122.946;2022-08-19T09:27:54;100739.94;;;20.47;51.93
55460;BME280;41326;45.302;-122.946;2022-08-19T09:30:26;100741.99;;;20.51;52.21
55460;BME280;41326;45.302;-122.946;2022-08-19T09:32:54;100744.81;;;20.58;52.87
55460;BME280;41326;45.302;-122.946;2022-08-19T09:35:26;100749.29;;;20.63;53.17
55460;BME280;41326;45.302;-122.946;2022-08-19T09:37:56;100751.40;;;20.64;53.22
55460;BME280;41326;45.302;-122.946;2022-08-19T09:40:25;100752.76;;;20.68;53.22
55460;BME280;41326;45.302;-122.946;2022-08-19T09:42:55;100750.08;;;20.73;53.17
55460;BME280;41326;45.302;-122.946;2022-08-19T09:45:26;100750.13;;;20.79;53.19
55460;BME280;41326;45.302;-122.946;2022-08-19T09:47:57;100749.57;;;20.82;53.24
55460;BME280;41326;45.302;-122.946;2022-08-19T09:50:27;100752.19;;;20.87;53.34
55460;BME280;41326;45.302;-122.946;2022-08-19T09:52:57;100754.07;;;20.87;53.94
55460;BME280;41326;45.302;-122.946;2022-08-19T09:55:26;100755.50;;;20.88;54.37
55460;BME280;41326;45.302;-122.946;2022-08-19T09:58:00;100758.45;;;20.89;54.37
55460;BME280;41326;45.302;-122.946;2022-08-19T10:00:28;100756.41;;;20.93;54.34
55460;BME280;41326;45.302;-122.946;2022-08-19T10:02:58;100756.72;;;20.94;54.46
55460;BME280;41326;45.302;-122.946;2022-08-19T10:05:28;100756.53;;;20.88;54.83
55460;BME280;41326;45.302;-122.946;2022-08-19T10:07:58;100754.61;;;20.94;54.81
55460;BME280;41326;45.302;-122.946;2022-08-19T10:10:29;100754.34;;;20.97;54.91
55460;BME280;41326;45.302;-122.946;2022-08-19T10:12:59;100760.98;;;21.00;55.42
55460;BME280;41326;45.302;-122.946;2022-08-19T10:15:30;100765.50;;;20.99;55.74
55460;BME280;41326;45.302;-122.946;2022-08-19T10:18:00;100768.76;;;20.95;55.85
55460;BME280;41326;45.302;-122.946;2022-08-19T10:20:30;100770.00;;;20.99;55.86
55460;BME280;41326;45.302;-122.946;2022-08-19T10:23:00;100769.85;;;21.00;55.85
55460;BME280;41326;45.302;-122.946;2022-08-19T10:25:32;100772.10;;;21.00;55.87
55460;BME280;41326;45.302;-122.946;2022-08-19T10:28:01;100773.82;;;21.05;55.72
55460;BME280;41326;45.302;-122.946;2022-08-19T10:30:31;100774.95;;;21.05;55.91
55460;BME280;41326;45.302;-122.946;2022-08-19T10:33:01;100773.31;;;21.06;56.30
55460;BME280;41326;45.302;-122.946;2022-08-19T10:35:32;100772.25;;;21.06;56.47
55460;BME280;41326;45.302;-122.946;2022-08-19T10:38:02;100771.03;;;21.06;56.52
55460;BME280;41326;45.302;-122.946;2022-08-19T10:40:33;100771.40;;;21.04;56.48
55460;BME280;41326;45.302;-122.946;2022-08-19T10:43:03;100772.21;;;21.02;56.67
55460;BME280;41326;45.302;-122.946;2022-08-19T10:45:33;100773.35;;;21.03;56.59
55460;BME280;41326;45.302;-122.946;2022-08-19T10:48:04;100772.12;;;21.03;56.64
55460;BME280;41326;45.302;-122.946;2022-08-19T10:50:34;100773.35;;;21.06;56.64
55460;BME280;41326;45.302;-122.946;2022-08-19T10:53:09;100779.95;;;21.07;56.95
55460;BME280;41326;45.302;-122.946;2022-08-19T10:55:34;100789.69;;;21.05;57.15
55460;BME280;41326;45.302;-122.946;2022-08-19T10:58:09;100796.05;;;21.07;57.01
55460;BME280;41326;45.302;-122.946;2022-08-19T11:00:35;100797.79;;;21.08;57.03
55460;BME280;41326;45.302;-122.946;2022-08-19T11:03:05;100799.94;;;21.11;56.93
55460;BME280;41326;45.302;-122.946;2022-08-19T11:05:35;100798.04;;;21.08;56.98
55460;BME280;41326;45.302;-122.946;2022-08-19T11:08:06;100799.81;;;21.09;56.98
55460;BME280;41326;45.302;-122.946;2022-08-19T11:10:36;100798.49;;;21.10;57.06
55460;BME280;41326;45.302;-122.946;2022-08-19T11:13:06;100796.34;;;21.10;57.25
55460;BME280;41326;45.302;-122.946;2022-08-19T11:15:37;100794.32;;;21.11;57.30
55460;BME280;41326;45.302;-122.946;2022-08-19T11:18:08;100794.83;;;21.10;57.30
55460;BME280;41326;45.302;-122.946;2022-08-19T11:20:38;100797.28;;;21.14;57.22
55460;BME280;41326;45.302;-122.946;2022-08-19T11:23:08;100797.86;;;21.11;57.36
55460;BME280;41326;45.302;-122.946;2022-08-19T11:25:39;100801.85;;;21.11;57.30
55460;BME280;41326;45.302;-122.946;2022-08-19T11:28:09;100803.15;;;21.10;57.36
55460;BME280;41326;45.302;-122.946;2022-08-19T11:30:39;100804.94;;;21.10;57.50
55460;BME280;41326;45.302;-122.946;2022-08-19T11:33:09;100804.36;;;21.07;56.16
55460;BME280;41326;45.302;-122.946;2022-08-19T11:35:39;100805.36;;;21.05;53.91
55460;BME280;41326;45.302;-122.946;2022-08-19T11:38:10;100805.49;;;20.95;52.86
55460;BME280;41326;45.302;-122.946;2022-08-19T11:40:41;100804.74;;;20.73;52.75
55460;BME280;41326;45.302;-122.946;2022-08-19T11:43:10;100804.64;;;20.63;54.07
55460;BME280;41326;45.302;-122.946;2022-08-19T11:45:40;100808.02;;;20.65;54.44
55460;BME280;41326;45.302;-122.946;2022-08-19T11:48:10;100809.05;;;20.69;54.52
55460;BME280;41326;45.302;-122.946;2022-08-19T11:50:41;100810.52;;;20.73;54.76
55460;BME280;41326;45.302;-122.946;2022-08-19T11:53:11;100811.85;;;20.80;55.25
55460;BME280;41326;45.302;-122.946;2022-08-19T11:55:43;100814.89;;;20.80;55.76
55460;BME280;41326;45.302;-122.946;2022-08-19T11:58:12;100819.20;;;20.83;55.76
55460;BME280;41326;45.302;-122.946;2022-08-19T12:00:43;100821.91;;;20.90;55.64
55460;BME280;41326;45.302;-122.946;2022-08-19T12:03:13;100824.25;;;20.93;55.62
55460;BME280;41326;45.302;-122.946;2022-08-19T12:05:43;100827.44;;;20.92;55.70
55460;BME280;41326;45.302;-122.946;2022-08-19T12:08:14;100827.94;;;20.95;55.70
55460;BME280;41326;45.302;-122.946;2022-08-19T12:10:45;100823.54;;;20.97;55.91
55460;BME280;41326;45.302;-122.946;2022-08-19T12:13:15;100826.04;;;20.95;56.46
55460;BME280;41326;45.302;-122.946;2022-08-19T12:15:46;100831.42;;;20.97;56.69
55460;BME280;41326;45.302;-122.946;2022-08-19T12:18:15;100832.00;;;20.97;56.66
55460;BME280;41326;45.302;-122.946;2022-08-19T12:20:46;100833.66;;;21.00;56.65
55460;BME280;41326;45.302;-122.946;2022-08-19T12:23:16;100835.11;;;20.99;56.66
55460;BME280;41326;45.302;-122.946;2022-08-19T12:25:50;100834.28;;;20.99;56.68
55460;BME280;41326;45.302;-122.946;2022-08-19T12:28:18;100834.38;;;20.98;56.70
55460;BME280;41326;45.302;-122.946;2022-08-19T12:30:47;100836.44;;;20.96;57.09
55460;BME280;41326;45.302;-122.946;2022-08-19T12:33:18;100835.53;;;20.94;57.65
55460;BME280;41326;45.302;-122.946;2022-08-19T12:35:48;100835.85;;;20.97;57.73
55460;BME280;41326;45.302;-122.946;2022-08-19T12:38:19;100836.57;;;20.94;57.81
55460;BME280;41326;45.302;-122.946;2022-08-19T12:40:51;100835.87;;;20.96;57.71